sensor_id;sensor_type;location;lat;lon;timestamp;P1;durP1;ratioP1;P2;durP2;ratioP2
55292;SDS011;41157;53.560;10.098;2023-03-01T00:01:16;24.73;;;11.27;;
55292;SDS011;41157;53.560;10.098;2023-03-01T00:03:44;24.70;;;11.77;;
55292;SDS011;41157;53.560;10.098;2023-03-01T00:06:12;19.33;;;10.87;;
55292;SDS011;41157;53.560;10.098;2023-03-01T00:08:40;25.17;;;10.67;;
55292;SDS011;41157;53.560;10.098;2023-03-01T00:11:08;25.53;;;11.53;;
55292;SDS011;41157;53.560;10.098;2023-03-01T00:13:36;32.03;;;10.80;;
55292;SDS011;41157;53.560;10.098;2023-03-01T00:16:04;20.83;;;11.20;;
55292;SDS011;41157;53.560;10.098;2023-03-01T00:18:31;21.30;;;11.40;;
55292;SDS011;41157;53.560;10.098;2023-03-01T00:20:58;21.00;;;10.90;;
55292;SDS011;41157;53.560;10.098;2023-03-01T00:23:25;26.57;;;11.53;;
55292;SDS011;41157;53.560;10.098;2023-03-01T00:25:53;23.17;;;11.33;;
55292;SDS011;41157;53.560;10.098;2023-03-01T00:28:20;26.77;;;11.63;;
55292;SDS011;41157;53.560;10.098;2023-03-01T00:30:47;28.73;;;12.17;;
55292;SDS011;41157;53.560;10.098;2023-03-01T00:33:14;27.90;;;10.83;;
55292;SDS011;41157;53.560;10.098;2023-03-01T00:35:41;20.63;;;10.87;;
55292;SDS011;41157;53.560;10.098;2023-03-01T00:38:08;24.13;;;10.00;;
55292;SDS011;41157;53.560;10.098;2023-03-01T00:40:35;25.23;;;10.23;;
55292;SDS011;41157;53.560;10.098;2023-03-01T00:43:04;21.00;;;10.90;;
55292;SDS011;41157;53.560;10.098;2023-03-01T00:45:32;25.97;;;10.43;;
55292;SDS011;41157;53.560;10.098;2023-03-01T00:47:59;23.63;;;10.53;;
55292;SDS011;41157;53.560;10.098;2023-03-01T00:50:26;26.63;;;10.93;;
55292;SDS011;41157;53.560;10.098;2023-03-01T00:52:53;28.87;;;11.43;;
55292;SDS011;41157;53.560;10.098;2023-03-01T00:55:20;19.10;;;10.67;;
55292;SDS011;41157;53.560;10.098;2023-03-01T00:57:47;22.40;;;9.93;;
55292;SDS011;41157;53.560;10.098;2023-03-01T01:00:16;24.43;;;11.03;;
55292;SDS011;41157;53.560;10.098;2023-03-01T01:02:43;21.30;;;10.13;;
55292;SDS011;41157;53.560;10.098;2023-03-01T01:05:10;23.00;;;10.47;;
55292;SDS011;41157;53.560;10.098;2023-03-01T01:07:38;22.20;;;10.87;;
55292;SDS011;41157;53.560;10.098;2023-03-01T01:10:05;19.57;;;10.10;;
55292;SDS011;41157;53.560;10.098;2023-03-01T01:12:32;25.03;;;11.27;;
55292;SDS011;41157;53.560;10.098;2023-03-01T01:14:59;17.20;;;10.07;;
55292;SDS011;41157;53.560;10.098;2023-03-01T01:17:28;20.47;;;10.33;;
55292;SDS011;41157;53.560;10.098;2023-03-01T01:19:55;19.13;;;9.80;;
55292;SDS011;41157;53.560;10.098;2023-03-01T01:22:22;25.03;;;10.37;;
55292;SDS011;41157;53.560;10.098;2023-03-01T01:24:49;19.30;;;10.03;;
55292;SDS011;41157;53.560;10.098;2023-03-01T01:27:16;15.20;;;9.23;;
55292;SDS011;41157;53.560;10.098;2023-03-01T01:29:42;23.03;;;10.47;;
55292;SDS011;41157;53.560;10.098;2023-03-01T01:32:09;17.43;;;9.23;;
55292;SDS011;41157;53.560;10.098;2023-03-01T01:34:38;15.67;;;9.70;;
55292;SDS011;41157;53.560;10.098;2023-03-01T01:37:05;18.17;;;9.23;;
55292;SDS011;41157;53.560;10.098;2023-03-01T01:39:32;16.17;;;8.90;;
55292;SDS011;41157;53.560;10.098;2023-03-01T01:42:00;16.53;;;9.53;;
55292;SDS011;41157;53.560;10.098;2023-03-01T01:44:28;23.63;;;9.77;;
55292;SDS011;41157;53.560;10.098;2023-03-01T01:46:55;16.90;;;9.37;;
55292;SDS011;41157;53.560;10.098;2023-03-01T01:49:27;18.60;;;9.37;;
55292;SDS011;41157;53.560;10.098;2023-03-01T01:51:59;21.73;;;9.20;;
55292;SDS011;41157;53.560;10.098;2023-03-01T01:54:28;17.23;;;9.60;;
55292;SDS011;41157;53.560;10.098;2023-03-01T01:56:58;18.60;;;9.63;;
55292;SDS011;41157;53.560;10.098;2023-03-01T01:59:25;18.83;;;9.93;;
55292;SDS011;41157;53.560;10.098;2023-03-01T02:01:53;19.87;;;10.17;;
55292;SDS011;41157;53.560;10.098;2023-03-01T02:04:21;17.70;;;9.83;;
55292;SDS011;41157;53.560;10.098;2023-03-01T02:06:49;17.93;;;9.97;;
55292;SDS011;41157;53.560;10.098;2023-03-01T02:09:20;18.90;;;9.53;;
55292;SDS011;41157;53.560;10.098;2023-03-01T02:11:48;21.17;;;9.80;;
55292;SDS011;41157;53.560;10.098;2023-03-01T02:14:16;17.33;;;9.23;;
55292;SDS011;41157;53.560;10.098;2023-03-01T02:16:43;17.23;;;9.30;;
55292;SDS011;41157;53.560;10.098;2023-03-01T02:19:13;18.03;;;8.73;;
55292;SDS011;41157;53.560;10.098;2023-03-01T02:21:45;18.57;;;9.03;;
55292;SDS011;41157;53.560;10.098;2023-03-01T02:24:15;16.90;;;8.90;;
55292;SDS011;41157;53.560;10.098;2023-03-01T02:26:46;19.07;;;9.00;;
55292;SDS011;41157;53.560;10.098;2023-03-01T02:29:16;23.47;;;9.37;;
55292;SDS011;41157;53.560;10.098;2023-03-01T02:31:43;19.03;;;9.17;;
55292;SDS011;41157;53.560;10.098;2023-03-01T02:34:11;23.50;;;8.03;;
55292;SDS011;41157;53.560;10.098;2023-03-01T02:36:39;19.07;;;8.70;;
55292;SDS011;41157;53.560;10.098;2023-03-01T02:39:07;22.50;;;9.00;;
55292;SDS011;41157;53.560;10.098;2023-03-01T02:41:39;15.53;;;8.47;;
55292;SDS011;41157;53.560;10.098;2023-03-01T02:44:07;14.43;;;8.67;;
55292;SDS011;41157;53.560;10.098;2023-03-01T02:46:41;17.30;;;9.20;;
55292;SDS011;41157;53.560;10.098;2023-03-01T02:49:16;13.97;;;9.07;;
55292;SDS011;41157;53.560;10.098;2023-03-01T02:51:46;15.23;;;8.50;;
55292;SDS011;41157;53.560;10.098;2023-03-01T02:54:17;14.03;;;7.93;;
55292;SDS011;41157;53.560;10.098;2023-03-01T02:56:46;16.20;;;8.13;;
55292;SDS011;41157;53.560;10.098;2023-03-01T02:59:14;16.87;;;9.13;;
55292;SDS011;41157;53.560;10.098;2023-03-01T03:01:43;18.07;;;9.30;;
55292;SDS011;41157;53.560;10.098;2023-03-01T03:04:13;16.07;;;8.60;;
55292;SDS011;41157;53.560;10.098;2023-03-01T03:06:42;20.00;;;8.53;;
55292;SDS011;41157;53.560;10.098;2023-03-01T03:09:09;16.33;;;9.03;;
55292;SDS011;41157;53.560;10.098;2023-03-01T03:11:36;24.37;;;9.10;;
55292;SDS011;41157;53.560;10.098;2023-03-01T03:14:04;19.23;;;8.93;;
55292;SDS011;41157;53.560;10.098;2023-03-01T03:16:39;17.87;;;8.87;;
55292;SDS011;41157;53.560;10.098;2023-03-01T03:19:07;15.27;;;8.90;;
55292;SDS011;41157;53.560;10.098;2023-03-01T03:21:34;13.67;;;8.33;;
55292;SDS011;41157;53.560;10.098;2023-03-01T03:24:02;19.53;;;9.17;;
55292;SDS011;41157;53.560;10.098;2023-03-01T03:26:29;18.73;;;8.73;;
55292;SDS011;41157;53.560;10.098;2023-03-01T03:28:56;21.23;;;9.50;;
55292;SDS011;41157;53.560;10.098;2023-03-01T03:31:23;15.70;;;9.00;;
55292;SDS011;41157;53.560;10.098;2023-03-01T03:33:50;16.10;;;9.13;;
55292;SDS011;41157;53.560;10.098;2023-03-01T03:36:19;16.80;;;8.83;;
55292;SDS011;41157;53.560;10.098;2023-03-01T03:38:46;18.33;;;9.00;;
55292;SDS011;41157;53.560;10.098;2023-03-01T03:41:14;15.27;;;8.70;;
55292;SDS011;41157;53.560;10.098;2023-03-01T03:43:42;19.00;;;8.83;;
55292;SDS011;41157;53.560;10.098;2023-03-01T03:46:09;15.30;;;8.53;;
55292;SDS011;41157;53.560;10.098;2023-03-01T03:48:38;16.27;;;9.07;;
55292;SDS011;41157;53.560;10.098;2023-03-01T03:51:05;12.17;;;8.10;;
55292;SDS011;41157;53.560;10.098;2023-03-01T03:53:33;14.57;;;8.20;;
55292;SDS011;41157;53.560;10.098;2023-03-01T03:56:00;14.60;;;8.63;;
55292;SDS011;41157;53.560;10.098;2023-03-01T03:58:27;14.80;;;8.47;;
55292;SDS011;41157;53.560;10.098;2023-03-01T04:00:55;16.33;;;8.37;;
55292;SDS011;41157;53.560;10.098;2023-03-01T04:03:22;13.73;;;7.53;;
55292;SDS011;41157;53.560;10.098;2023-03-01T04:05:50;16.73;;;7.33;;
55292;SDS011;41157;53.560;10.098;2023-03-01T04:08:17;14.50;;;8.30;;
55292;SDS011;41157;53.560;10.098;2023-03-01T04:10:48;14.90;;;8.10;;
55292;SDS011;41157;53.560;10.098;2023-03-01T04:13:16;12.40;;;7.30;;
55292;SDS011;41157;53.560;10.098;2023-03-01T04:15:44;14.80;;;7.63;;
55292;SDS011;41157;53.560;10.098;2023-03-01T04:18:12;15.80;;;8.03;;
55292;SDS011;41157;53.560;10.098;2023-03-01T04:20:40;13.33;;;7.27;;
55292;SDS011;41157;53.560;10.098;2023-03-01T04:23:08;14.10;;;8.20;;
55292;SDS011;41157;53.560;10.098;2023-03-01T04:25:41;17.50;;;8.27;;
55292;SDS011;41157;53.560;10.098;2023-03-01T04:28:10;16.37;;;8.10;;
55292;SDS011;41157;53.560;10.098;2023-03-01T04:30:37;16.27;;;7.80;;
55292;SDS011;41157;53.560;10.098;2023-03-01T04:33:04;12.53;;;7.43;;
55292;SDS011;41157;53.560;10.098;2023-03-01T04:35:32;11.80;;;7.63;;
55292;SDS011;41157;53.560;10.098;2023-03-01T04:37:59;16.00;;;8.07;;
55292;SDS011;41157;53.560;10.098;2023-03-01T04:40:26;18.50;;;7.73;;
55292;SDS011;41157;53.560;10.098;2023-03-01T04:42:53;16.17;;;8.10;;
55292;SDS011;41157;53.560;10.098;2023-03-01T04:45:22;16.13;;;7.63;;
55292;SDS011;41157;53.560;10.098;2023-03-01T04:47:49;13.13;;;6.97;;
55292;SDS011;41157;53.560;10.098;2023-03-01T04:50:17;12.93;;;7.27;;
55292;SDS011;41157;53.560;10.098;2023-03-01T04:52:45;11.17;;;7.07;;
55292;SDS011;41157;53.560;10.098;2023-03-01T04:55:12;17.50;;;8.33;;
55292;SDS011;41157;53.560;10.098;2023-03-01T04:57:39;17.17;;;7.57;;
55292;SDS011;41157;53.560;10.098;2023-03-01T05:00:07;15.13;;;7.33;;
55292;SDS011;41157;53.560;10.098;2023-03-01T05:02:46;14.97;;;7.43;;
55292;SDS011;41157;53.560;10.098;2023-03-01T05:05:18;13.87;;;7.43;;
55292;SDS011;41157;53.560;10.098;2023-03-01T05:07:45;15.00;;;7.47;;
55292;SDS011;41157;53.560;10.098;2023-03-01T05:10:11;19.40;;;8.10;;
55292;SDS011;41157;53.560;10.098;2023-03-01T05:12:38;12.57;;;7.63;;
55292;SDS011;41157;53.560;10.098;2023-03-01T05:15:06;12.53;;;8.07;;
55292;SDS011;41157;53.560;10.098;2023-03-01T05:17:33;14.93;;;7.00;;
55292;SDS011;41157;53.560;10.098;2023-03-01T05:20:01;15.53;;;8.03;;
55292;SDS011;41157;53.560;10.098;2023-03-01T05:22:31;13.93;;;6.90;;
55292;SDS011;41157;53.560;10.098;2023-03-01T05:24:59;16.43;;;7.47;;
55292;SDS011;41157;53.560;10.098;2023-03-01T05:27:26;14.30;;;7.10;;
55292;SDS011;41157;53.560;10.098;2023-03-01T05:29:54;17.17;;;7.43;;
55292;SDS011;41157;53.560;10.098;2023-03-01T05:32:21;18.47;;;7.20;;
55292;SDS011;41157;53.560;10.098;2023-03-01T05:34:48;15.37;;;7.10;;
55292;SDS011;41157;53.560;10.098;2023-03-01T05:37:18;16.60;;;7.23;;
55292;SDS011;41157;53.560;10.098;2023-03-01T05:39:45;13.07;;;6.97;;
55292;SDS011;41157;53.560;10.098;2023-03-01T05:42:15;12.10;;;6.87;;
55292;SDS011;41157;53.560;10.098;2023-03-01T05:44:42;13.80;;;7.30;;
55292;SDS011;41157;53.560;10.098;2023-03-01T05:47:10;12.63;;;6.73;;
55292;SDS011;41157;53.560;10.098;2023-03-01T05:49:37;11.80;;;6.47;;
55292;SDS011;41157;53.560;10.098;2023-03-01T05:52:04;18.33;;;7.30;;
55292;SDS011;41157;53.560;10.098;2023-03-01T05:54:33;15.97;;;7.13;;
55292;SDS011;41157;53.560;10.098;2023-03-01T05:57:00;10.70;;;6.63;;
55292;SDS011;41157;53.560;10.098;2023-03-01T05:59:27;15.27;;;7.33;;
55292;SDS011;41157;53.560;10.098;2023-03-01T06:01:54;13.27;;;6.60;;
55292;SDS011;41157;53.560;10.098;2023-03-01T06:04:21;15.70;;;7.73;;
55292;SDS011;41157;53.560;10.098;2023-03-01T06:06:48;13.30;;;7.37;;
55292;SDS011;41157;53.560;10.098;2023-03-01T06:09:15;14.20;;;7.43;;
55292;SDS011;41157;53.560;10.098;2023-03-01T06:11:43;19.80;;;7.53;;
55292;SDS011;41157;53.560;10.098;2023-03-01T06:14:10;9.53;;;6.63;;
55292;SDS011;41157;53.560;10.098;2023-03-01T06:16:39;18.90;;;8.03;;
55292;SDS011;41157;53.560;10.098;2023-03-01T06:19:06;16.00;;;7.47;;
55292;SDS011;41157;53.560;10.098;2023-03-01T06:21:33;15.20;;;6.77;;
55292;SDS011;41157;53.560;10.098;2023-03-01T06:24:00;10.57;;;6.77;;
55292;SDS011;41157;53.560;10.098;2023-03-01T06:26:27;12.53;;;7.10;;
55292;SDS011;41157;53.560;10.098;2023-03-01T06:28:55;13.57;;;7.53;;
55292;SDS011;41157;53.560;10.098;2023-03-01T06:31:22;12.33;;;6.90;;
55292;SDS011;41157;53.560;10.098;2023-03-01T06:33:49;12.90;;;7.10;;
55292;SDS011;41157;53.560;10.098;2023-03-01T06:36:16;14.67;;;7.70;;
55292;SDS011;41157;53.560;10.098;2023-03-01T06:38:46;20.50;;;7.47;;
55292;SDS011;41157;53.560;10.098;2023-03-01T06:41:13;24.40;;;7.20;;
55292;SDS011;41157;53.560;10.098;2023-03-01T06:43:40;13.80;;;7.50;;
55292;SDS011;41157;53.560;10.098;2023-03-01T06:46:08;13.33;;;7.53;;
55292;SDS011;41157;53.560;10.098;2023-03-01T06:48:35;13.00;;;6.90;;
55292;SDS011;41157;53.560;10.098;2023-03-01T06:51:02;16.53;;;7.20;;
55292;SDS011;41157;53.560;10.098;2023-03-01T06:53:29;17.47;;;7.73;;
55292;SDS011;41157;53.560;10.098;2023-03-01T06:55:57;17.57;;;8.07;;
55292;SDS011;41157;53.560;10.098;2023-03-01T06:58:25;21.07;;;7.90;;
55292;SDS011;41157;53.560;10.098;2023-03-01T07:00:52;22.43;;;9.27;;
55292;SDS011;41157;53.560;10.098;2023-03-01T07:03:20;13.43;;;7.33;;
55292;SDS011;41157;53.560;10.098;2023-03-01T07:05:48;15.80;;;7.90;;
55292;SDS011;41157;53.560;10.098;2023-03-01T07:08:17;14.23;;;7.37;;
55292;SDS011;41157;53.560;10.098;2023-03-01T07:10:44;15.83;;;7.60;;
55292;SDS011;41157;53.560;10.098;2023-03-01T07:13:11;18.50;;;7.60;;
55292;SDS011;41157;53.560;10.098;2023-03-01T07:15:39;19.80;;;8.30;;
55292;SDS011;41157;53.560;10.098;2023-03-01T07:18:07;15.90;;;7.20;;
55292;SDS011;41157;53.560;10.098;2023-03-01T07:20:36;13.20;;;6.80;;
55292;SDS011;41157;53.560;10.098;2023-03-01T07:23:03;11.93;;;6.73;;
55292;SDS011;41157;53.560;10.098;2023-03-01T07:25:32;21.60;;;7.30;;
55292;SDS011;41157;53.560;10.098;2023-03-01T07:27:59;22.10;;;8.40;;
55292;SDS011;41157;53.560;10.098;2023-03-01T07:30:26;31.07;;;8.23;;
55292;SDS011;41157;53.560;10.098;2023-03-01T07:32:54;15.57;;;8.63;;
55292;SDS011;41157;53.560;10.098;2023-03-01T07:35:21;13.80;;;7.53;;
55292;SDS011;41157;53.560;10.098;2023-03-01T07:37:50;18.63;;;7.97;;
55292;SDS011;41157;53.560;10.098;2023-03-01T07:40:17;17.87;;;7.27;;
55292;SDS011;41157;53.560;10.098;2023-03-01T07:42:44;12.60;;;6.67;;
55292;SDS011;41157;53.560;10.098;2023-03-01T07:45:12;15.90;;;7.67;;
55292;SDS011;41157;53.560;10.098;2023-03-01T07:47:39;16.23;;;7.20;;
55292;SDS011;41157;53.560;10.098;2023-03-01T07:50:06;14.63;;;7.43;;
55292;SDS011;41157;53.560;10.098;2023-03-01T07:52:34;18.77;;;7.17;;
55292;SDS011;41157;53.560;10.098;2023-03-01T07:55:02;18.30;;;7.07;;
55292;SDS011;41157;53.560;10.098;2023-03-01T07:57:29;12.83;;;6.47;;
55292;SDS011;41157;53.560;10.098;2023-03-01T07:59:57;13.23;;;6.87;;
55292;SDS011;41157;53.560;10.098;2023-03-01T08:02:24;9.77;;;6.23;;
55292;SDS011;41157;53.560;10.098;2023-03-01T08:04:51;15.30;;;6.03;;
55292;SDS011;41157;53.560;10.098;2023-03-01T08:07:18;17.33;;;6.87;;
55292;SDS011;41157;53.560;10.098;2023-03-01T08:09:45;13.80;;;7.60;;
55292;SDS011;41157;53.560;10.098;2023-03-01T08:12:14;15.37;;;7.83;;
55292;SDS011;41157;53.560;10.098;2023-03-01T08:14:41;12.60;;;7.10;;
55292;SDS011;41157;53.560;10.098;2023-03-01T08:17:09;13.80;;;7.43;;
55292;SDS011;41157;53.560;10.098;2023-03-01T08:19:36;12.10;;;7.70;;
55292;SDS011;41157;53.560;10.098;2023-03-01T08:22:03;13.13;;;8.20;;
55292;SDS011;41157;53.560;10.098;2023-03-01T08:24:30;14.17;;;7.80;;
55292;SDS011;41157;53.560;10.098;2023-03-01T08:26:58;12.40;;;7.90;;
55292;SDS011;41157;53.560;10.098;2023-03-01T08:29:27;10.70;;;7.77;;
55292;SDS011;41157;53.560;10.098;2023-03-01T08:31:54;16.60;;;7.80;;
55292;SDS011;41157;53.560;10.098;2023-03-01T08:34:21;13.70;;;8.17;;
55292;SDS011;41157;53.560;10.098;2023-03-01T08:36:48;14.93;;;8.20;;
55292;SDS011;41157;53.560;10.098;2023-03-01T08:39:17;12.80;;;8.43;;
55292;SDS011;41157;53.560;10.098;2023-03-01T08:41:45;12.50;;;7.80;;
55292;SDS011;41157;53.560;10.098;2023-03-01T08:44:12;14.80;;;8.57;;
55292;SDS011;41157;53.560;10.098;2023-03-01T08:46:43;14.03;;;8.10;;
55292;SDS011;41157;53.560;10.098;2023-03-01T08:49:11;16.27;;;8.00;;
55292;SDS011;41157;53.560;10.098;2023-03-01T08:51:39;12.23;;;8.23;;
55292;SDS011;41157;53.560;10.098;2023-03-01T08:54:06;17.63;;;8.10;;
55292;SDS011;41157;53.560;10.098;2023-03-01T08:56:34;17.50;;;9.00;;
55292;SDS011;41157;53.560;10.098;2023-03-01T08:59:02;16.37;;;8.17;;
55292;SDS011;41157;53.560;10.098;2023-03-01T09:01:29;13.63;;;8.57;;
55292;SDS011;41157;53.560;10.098;2023-03-01T09:03:57;15.03;;;8.33;;
55292;SDS011;41157;53.560;10.098;2023-03-01T09:06:24;12.77;;;7.83;;
55292;SDS011;41157;53.560;10.098;2023-03-01T09:08:51;12.40;;;7.93;;
55292;SDS011;41157;53.560;10.098;2023-03-01T09:11:20;12.90;;;8.17;;
55292;SDS011;41157;53.560;10.098;2023-03-01T09:13:47;16.83;;;9.23;;
55292;SDS011;41157;53.560;10.098;2023-03-01T09:16:15;12.87;;;9.40;;
55292;SDS011;41157;53.560;10.098;2023-03-01T09:18:42;12.63;;;8.50;;
55292;SDS011;41157;53.560;10.098;2023-03-01T09:21:11;12.60;;;7.80;;
55292;SDS011;41157;53.560;10.098;2023-03-01T09:23:40;13.40;;;7.57;;
55292;SDS011;41157;53.560;10.098;2023-03-01T09:26:07;14.47;;;7.97;;
55292;SDS011;41157;53.560;10.098;2023-03-01T09:28:34;11.07;;;7.20;;
55292;SDS011;41157;53.560;10.098;2023-03-01T09:31:01;9.50;;;7.40;;
55292;SDS011;41157;53.560;10.098;2023-03-01T09:33:29;14.20;;;7.70;;
55292;SDS011;41157;53.560;10.098;2023-03-01T09:35:56;12.13;;;6.70;;
55292;SDS011;41157;53.560;10.098;2023-03-01T09:38:25;10.13;;;6.73;;
55292;SDS011;41157;53.560;10.098;2023-03-01T09:40:52;16.53;;;8.00;;
55292;SDS011;41157;53.560;10.098;2023-03-01T09:43:21;12.20;;;8.20;;
55292;SDS011;41157;53.560;10.098;2023-03-01T09:45:50;12.77;;;8.37;;
55292;SDS011;41157;53.560;10.098;2023-03-01T09:48:21;13.13;;;8.57;;
55292;SDS011;41157;53.560;10.098;2023-03-01T09:50:49;16.03;;;8.57;;
55292;SDS011;41157;53.560;10.098;2023-03-01T09:53:17;10.47;;;8.00;;
55292;SDS011;41157;53.560;10.098;2023-03-01T09:55:48;15.20;;;8.13;;
55292;SDS011;41157;53.560;10.098;2023-03-01T09:58:27;10.57;;;8.30;;
55292;SDS011;41157;53.560;10.098;2023-03-01T10:00:56;11.87;;;8.37;;
55292;SDS011;41157;53.560;10.098;2023-03-01T10:03:25;12.70;;;9.20;;
55292;SDS011;41157;53.560;10.098;2023-03-01T10:05:55;15.60;;;8.93;;
55292;SDS011;41157;53.560;10.098;2023-03-01T10:08:26;12.40;;;8.50;;
55292;SDS011;41157;53.560;10.098;2023-03-01T10:10:57;10.60;;;8.00;;
55292;SDS011;41157;53.560;10.098;2023-03-01T10:13:25;11.83;;;8.37;;
55292;SDS011;41157;53.560;10.098;2023-03-01T10:15:55;12.45;;;7.97;;
55292;SDS011;41157;53.560;10.098;2023-03-01T10:18:23;11.98;;;8.45;;
55292;SDS011;41157;53.560;10.098;2023-03-01T10:20:52;10.95;;;8.43;;
55292;SDS011;41157;53.560;10.098;2023-03-01T10:23:19;9.15;;;7.72;;
55292;SDS011;41157;53.560;10.098;2023-03-01T10:25:47;12.15;;;7.93;;
55292;SDS011;41157;53.560;10.098;2023-03-01T10:28:23;8.73;;;7.82;;
55292;SDS011;41157;53.560;10.098;2023-03-01T10:30:53;10.40;;;8.10;;
55292;SDS011;41157;53.560;10.098;2023-03-01T10:33:20;10.00;;;7.43;;
55292;SDS011;41157;53.560;10.098;2023-03-01T10:35:48;11.75;;;7.18;;
55292;SDS011;41157;53.560;10.098;2023-03-01T10:38:16;11.02;;;7.65;;
55292;SDS011;41157;53.560;10.098;2023-03-01T10:40:50;8.18;;;7.05;;
55292;SDS011;41157;53.560;10.098;2023-03-01T10:43:17;8.80;;;7.07;;
55292;SDS011;41157;53.560;10.098;2023-03-01T10:45:47;10.88;;;6.78;;
55292;SDS011;41157;53.560;10.098;2023-03-01T10:48:15;7.90;;;6.60;;
55292;SDS011;41157;53.560;10.098;2023-03-01T10:50:43;8.40;;;6.32;;
55292;SDS011;41157;53.560;10.098;2023-03-01T10:53:20;9.05;;;6.82;;
55292;SDS011;41157;53.560;10.098;2023-03-01T10:55:48;7.68;;;6.60;;
55292;SDS011;41157;53.560;10.098;2023-03-01T10:58:22;8.73;;;6.97;;
55292;SDS011;41157;53.560;10.098;2023-03-01T11:00:52;8.95;;;6.70;;
55292;SDS011;41157;53.560;10.098;2023-03-01T11:03:21;8.50;;;6.40;;
55292;SDS011;41157;53.560;10.098;2023-03-01T11:05:50;8.55;;;6.75;;
55292;SDS011;41157;53.560;10.098;2023-03-01T11:08:28;7.93;;;5.93;;
55292;SDS011;41157;53.560;10.098;2023-03-01T11:11:03;9.48;;;6.25;;
55292;SDS011;41157;53.560;10.098;2023-03-01T11:13:30;8.73;;;6.40;;
55292;SDS011;41157;53.560;10.098;2023-03-01T11:16:00;10.75;;;6.38;;
55292;SDS011;41157;53.560;10.098;2023-03-01T11:18:27;9.15;;;7.07;;
55292;SDS011;41157;53.560;10.098;2023-03-01T11:20:56;10.88;;;6.78;;
55292;SDS011;41157;53.560;10.098;2023-03-01T11:23:24;8.10;;;6.75;;
55292;SDS011;41157;53.560;10.098;2023-03-01T11:25:52;9.55;;;6.82;;
55292;SDS011;41157;53.560;10.098;2023-03-01T11:28:21;9.55;;;6.88;;
55292;SDS011;41157;53.560;10.098;2023-03-01T11:30:50;7.05;;;5.93;;
55292;SDS011;41157;53.560;10.098;2023-03-01T11:33:23;11.48;;;6.70;;
55292;SDS011;41157;53.560;10.098;2023-03-01T11:35:53;8.80;;;6.22;;
55292;SDS011;41157;53.560;10.098;2023-03-01T11:38:22;7.68;;;6.30;;
55292;SDS011;41157;53.560;10.098;2023-03-01T11:40:51;9.75;;;6.78;;
55292;SDS011;41157;53.560;10.098;2023-03-01T11:43:20;9.30;;;6.80;;
55292;SDS011;41157;53.560;10.098;2023-03-01T11:46:03;7.75;;;6.40;;
55292;SDS011;41157;53.560;10.098;2023-03-01T11:48:37;7.22;;;5.88;;
55292;SDS011;41157;53.560;10.098;2023-03-01T11:51:05;8.57;;;6.03;;
55292;SDS011;41157;53.560;10.098;2023-03-01T11:53:39;7.18;;;5.90;;
55292;SDS011;41157;53.560;10.098;2023-03-01T11:56:16;10.40;;;6.15;;
55292;SDS011;41157;53.560;10.098;2023-03-01T11:58:51;9.60;;;7.28;;
55292;SDS011;41157;53.560;10.098;2023-03-01T12:01:25;8.00;;;5.80;;
55292;SDS011;41157;53.560;10.098;2023-03-01T12:04:01;7.45;;;6.18;;
55292;SDS011;41157;53.560;10.098;2023-03-01T12:06:38;7.97;;;6.22;;
55292;SDS011;41157;53.560;10.098;2023-03-01T12:09:11;9.02;;;7.32;;
55292;SDS011;41157;53.560;10.098;2023-03-01T12:11:46;8.35;;;6.88;;
55292;SDS011;41157;53.560;10.098;2023-03-01T12:17:11;9.77;;;6.95;;
55292;SDS011;41157;53.560;10.098;2023-03-01T12:19:48;8.05;;;6.50;;
55292;SDS011;41157;53.560;10.098;2023-03-01T12:22:27;7.05;;;6.35;;
55292;SDS011;41157;53.560;10.098;2023-03-01T12:24:59;9.90;;;6.57;;
55292;SDS011;41157;53.560;10.098;2023-03-01T12:27:41;10.90;;;6.50;;
55292;SDS011;41157;53.560;10.098;2023-03-01T12:30:17;9.80;;;6.15;;
55292;SDS011;41157;53.560;10.098;2023-03-01T12:32:50;7.72;;;6.07;;
55292;SDS011;41157;53.560;10.098;2023-03-01T12:35:31;10.27;;;6.10;;
55292;SDS011;41157;53.560;10.098;2023-03-01T12:38:03;8.27;;;6.30;;
55292;SDS011;41157;53.560;10.098;2023-03-01T12:40:35;7.80;;;6.88;;
55292;SDS011;41157;53.560;10.098;2023-03-01T12:48:37;9.27;;;6.43;;
55292;SDS011;41157;53.560;10.098;2023-03-01T12:51:08;8.07;;;6.80;;
55292;SDS011;41157;53.560;10.098;2023-03-01T12:53:37;6.65;;;5.22;;
55292;SDS011;41157;53.560;10.098;2023-03-01T12:56:06;5.93;;;4.97;;
55292;SDS011;41157;53.560;10.098;2023-03-01T12:58:35;6.90;;;5.28;;
55292;SDS011;41157;53.560;10.098;2023-03-01T13:01:05;6.10;;;5.07;;
55292;SDS011;41157;53.560;10.098;2023-03-01T13:03:45;5.50;;;4.65;;
55292;SDS011;41157;53.560;10.098;2023-03-01T13:06:17;9.30;;;4.80;;
55292;SDS011;41157;53.560;10.098;2023-03-01T13:08:47;5.00;;;4.28;;
55292;SDS011;41157;53.560;10.098;2023-03-01T13:11:17;6.22;;;4.78;;
55292;SDS011;41157;53.560;10.098;2023-03-01T13:13:45;7.90;;;4.88;;
55292;SDS011;41157;53.560;10.098;2023-03-01T13:16:21;7.55;;;5.47;;
55292;SDS011;41157;53.560;10.098;2023-03-01T13:18:49;5.82;;;4.70;;
55292;SDS011;41157;53.560;10.098;2023-03-01T13:21:29;7.43;;;4.93;;
55292;SDS011;41157;53.560;10.098;2023-03-01T13:23:56;7.13;;;4.85;;
55292;SDS011;41157;53.560;10.098;2023-03-01T13:26:24;6.65;;;5.25;;
55292;SDS011;41157;53.560;10.098;2023-03-01T13:28:52;5.88;;;5.28;;
55292;SDS011;41157;53.560;10.098;2023-03-01T13:34:06;5.70;;;4.90;;
55292;SDS011;41157;53.560;10.098;2023-03-01T13:36:55;7.05;;;5.55;;
55292;SDS011;41157;53.560;10.098;2023-03-01T13:39:39;7.53;;;5.10;;
55292;SDS011;41157;53.560;10.098;2023-03-01T13:44:48;6.43;;;4.60;;
55292;SDS011;41157;53.560;10.098;2023-03-01T13:47:16;5.78;;;4.60;;
55292;SDS011;41157;53.560;10.098;2023-03-01T13:49:46;4.80;;;4.30;;
55292;SDS011;41157;53.560;10.098;2023-03-01T13:52:31;8.68;;;4.88;;
55292;SDS011;41157;53.560;10.098;2023-03-01T13:55:00;6.40;;;4.78;;
55292;SDS011;41157;53.560;10.098;2023-03-01T13:57:33;21.77;;;5.13;;
55292;SDS011;41157;53.560;10.098;2023-03-01T14:00:01;4.68;;;4.05;;
55292;SDS011;41157;53.560;10.098;2023-03-01T14:02:29;4.70;;;3.90;;
55292;SDS011;41157;53.560;10.098;2023-03-01T14:04:57;7.35;;;4.00;;
55292;SDS011;41157;53.560;10.098;2023-03-01T14:07:26;5.65;;;4.13;;
55292;SDS011;41157;53.560;10.098;2023-03-01T14:09:56;5.22;;;4.10;;
55292;SDS011;41157;53.560;10.098;2023-03-01T14:12:32;4.25;;;3.05;;
55292;SDS011;41157;53.560;10.098;2023-03-01T14:15:04;5.63;;;3.30;;
55292;SDS011;41157;53.560;10.098;2023-03-01T14:20:17;5.28;;;3.60;;
55292;SDS011;41157;53.560;10.098;2023-03-01T14:22:46;5.53;;;3.80;;
55292;SDS011;41157;53.560;10.098;2023-03-01T14:25:19;6.50;;;3.63;;
55292;SDS011;41157;53.560;10.098;2023-03-01T14:27:50;3.95;;;3.33;;
55292;SDS011;41157;53.560;10.098;2023-03-01T14:30:19;4.60;;;3.95;;
55292;SDS011;41157;53.560;10.098;2023-03-01T14:32:51;10.02;;;3.70;;
55292;SDS011;41157;53.560;10.098;2023-03-01T14:35:20;4.88;;;2.90;;
55292;SDS011;41157;53.560;10.098;2023-03-01T14:37:48;4.22;;;3.60;;
55292;SDS011;41157;53.560;10.098;2023-03-01T14:40:23;5.57;;;3.35;;
55292;SDS011;41157;53.560;10.098;2023-03-01T14:42:51;5.07;;;3.65;;
55292;SDS011;41157;53.560;10.098;2023-03-01T14:45:19;5.13;;;3.63;;
55292;SDS011;41157;53.560;10.098;2023-03-01T14:47:46;5.07;;;3.72;;
55292;SDS011;41157;53.560;10.098;2023-03-01T14:50:20;4.63;;;3.60;;